createdAt,value
2023-05-22T00:00:13.872Z,99.90
2023-05-22T00:00:37.375Z,99.90
2023-05-22T00:01:02.316Z,99.90
2023-05-22T00:01:26.693Z,99.90
2023-05-22T00:01:49.784Z,99.90
2023-05-22T00:02:12.796Z,99.90
2023-05-22T00:02:42.992Z,99.90
2023-05-22T00:03:06.265Z,99.90
2023-05-22T00:03:30.579Z,99.90
2023-05-22T00:03:54.704Z,99.90
2023-05-22T00:04:21.625Z,99.90
2023-05-22T00:04:47.029Z,99.90
2023-05-22T00:05:13.675Z,99.90
2023-05-22T00:05:39.091Z,99.90
2023-05-22T00:06:02.412Z,99.90
2023-05-22T00:06:25.198Z,99.90
2023-05-22T00:06:48.936Z,99.90
2023-05-22T00:07:11.817Z,99.90
2023-05-22T00:07:34.604Z,99.90
2023-05-22T00:07:57.309Z,99.90
2023-05-22T00:08:20.029Z,99.90
2023-05-22T00:08:42.747Z,99.90
2023-05-22T00:09:05.553Z,99.90
2023-05-22T00:09:29.759Z,99.90
2023-05-22T00:09:52.531Z,99.90
2023-05-22T00:10:15.890Z,99.90
2023-05-22T00:10:39.069Z,99.90
2023-05-22T00:11:02.043Z,99.90
2023-05-22T00:11:24.882Z,99.90
2023-05-22T00:11:47.642Z,99.90
2023-05-22T00:12:10.499Z,99.90
2023-05-22T00:12:33.256Z,99.90
2023-05-22T00:12:55.962Z,99.90
2023-05-22T00:13:18.830Z,99.90
2023-05-22T00:13:41.651Z,99.90
2023-05-22T00:14:04.459Z,99.90
2023-05-22T00:14:27.144Z,99.90
2023-05-22T00:14:49.936Z,99.90
2023-05-22T00:15:12.832Z,99.90
2023-05-22T00:15:35.543Z,99.90
2023-05-22T00:15:58.299Z,99.90
2023-05-22T00:16:21.155Z,99.90
2023-05-22T00:16:44.143Z,99.90
2023-05-22T00:17:07.001Z,99.90
2023-05-22T00:17:31.303Z,99.90
2023-05-22T00:17:54.357Z,99.90
2023-05-22T00:18:17.499Z,99.90
2023-05-22T00:18:42.509Z,99.90
2023-05-22T00:19:05.469Z,99.90
2023-05-22T00:19:30.583Z,99.90
2023-05-22T00:19:54.301Z,99.90
2023-05-22T00:20:17.174Z,99.90
2023-05-22T00:20:41.117Z,99.90
2023-05-22T00:21:04.546Z,99.90
2023-05-22T00:21:28.247Z,99.90
2023-05-22T00:21:52.094Z,99.90
2023-05-22T00:22:14.916Z,99.90
2023-05-22T00:22:37.708Z,99.90
2023-05-22T00:23:01.339Z,99.90
2023-05-22T00:23:24.725Z,99.90
2023-05-22T00:23:47.459Z,99.90
2023-05-22T00:24:10.165Z,99.90
2023-05-22T00:24:34.480Z,99.90
2023-05-22T00:24:57.249Z,99.90
2023-05-22T00:25:20.556Z,99.90
2023-05-22T00:25:43.323Z,99.90
2023-05-22T00:26:06.146Z,99.90
2023-05-22T00:26:29.023Z,99.90
2023-05-22T00:26:51.812Z,99.90
2023-05-22T00:27:14.673Z,99.90
2023-05-22T00:27:37.473Z,99.90
2023-05-22T00:28:00.193Z,99.90
2023-05-22T00:28:22.984Z,99.90
2023-05-22T00:28:46.320Z,99.90
2023-05-22T00:29:09.633Z,99.90
2023-05-22T00:29:32.435Z,99.90
2023-05-22T00:29:55.264Z,99.90
2023-05-22T00:30:18.147Z,99.90
2023-05-22T00:30:41.310Z,99.90
2023-05-22T00:31:04.663Z,99.90
2023-05-22T00:31:27.443Z,99.90
2023-05-22T00:31:50.224Z,99.90
2023-05-22T00:32:13.135Z,99.90
2023-05-22T00:32:36.091Z,99.90
2023-05-22T00:32:58.854Z,99.90
2023-05-22T00:33:21.621Z,99.90
2023-05-22T00:33:44.519Z,99.90
2023-05-22T00:34:07.495Z,99.90
2023-05-22T00:34:30.351Z,99.90
2023-05-22T00:34:53.161Z,99.90
2023-05-22T00:35:15.972Z,99.90
2023-05-22T00:35:38.764Z,99.90
2023-05-22T00:36:01.753Z,99.90
2023-05-22T00:36:24.860Z,99.90
2023-05-22T00:36:47.572Z,99.90
2023-05-22T00:37:11.005Z,99.90
2023-05-22T00:37:33.786Z,99.90
2023-05-22T00:37:56.670Z,99.90
2023-05-22T00:38:29.945Z,99.90
2023-05-22T00:38:52.718Z,99.90
2023-05-22T00:39:15.443Z,99.90
2023-05-22T00:39:39.642Z,99.90
2023-05-22T00:40:02.369Z,99.90
2023-05-22T00:40:25.179Z,99.90
2023-05-22T00:40:47.937Z,99.90
2023-05-22T00:41:10.852Z,99.90
2023-05-22T00:41:36.666Z,99.90
2023-05-22T00:41:59.472Z,99.90
2023-05-22T00:42:22.941Z,99.90
2023-05-22T00:42:45.700Z,99.90
2023-05-22T00:43:09.405Z,99.90
2023-05-22T00:43:32.267Z,99.90
2023-05-22T00:43:55.106Z,99.90
2023-05-22T00:44:17.907Z,99.90
2023-05-22T00:44:41.976Z,99.90
2023-05-22T00:45:06.774Z,99.90
2023-05-22T00:45:29.687Z,99.90
2023-05-22T00:45:54.117Z,99.90
2023-05-22T00:46:21.790Z,99.90
2023-05-22T00:46:44.787Z,99.90
2023-05-22T00:47:08.371Z,99.90
2023-05-22T00:47:32.456Z,99.90
2023-05-22T00:47:55.435Z,99.90
2023-05-22T00:48:18.386Z,99.90
2023-05-22T00:48:41.185Z,99.90
2023-05-22T00:49:04.037Z,99.90
2023-05-22T00:49:26.819Z,99.90
2023-05-22T00:49:49.641Z,99.90
2023-05-22T00:50:12.495Z,99.90
2023-05-22T00:50:35.276Z,99.90
2023-05-22T00:50:58.207Z,99.90
2023-05-22T00:51:21.442Z,99.90
2023-05-22T00:51:44.202Z,99.90
2023-05-22T00:52:07.233Z,99.90
2023-05-22T00:52:30.002Z,99.90
2023-05-22T00:52:52.823Z,99.90
2023-05-22T00:53:15.879Z,99.90
2023-05-22T00:53:38.697Z,99.90
2023-05-22T00:54:01.560Z,99.90
2023-05-22T00:54:24.437Z,99.90
2023-05-22T00:54:48.935Z,99.90
2023-05-22T00:55:12.532Z,99.90
2023-05-22T00:55:35.283Z,99.90
2023-05-22T00:55:58.024Z,99.90
2023-05-22T00:56:21.375Z,99.90
2023-05-22T00:56:44.093Z,99.90
2023-05-22T00:57:06.918Z,99.90
2023-05-22T00:57:29.817Z,99.90
2023-05-22T00:57:52.664Z,99.90
2023-05-22T00:58:17.148Z,1.00
2023-05-22T00:58:40.081Z,1.00
2023-05-22T00:59:02.870Z,99.90
2023-05-22T00:59:25.800Z,99.90
2023-05-22T00:59:48.811Z,99.90
2023-05-22T01:00:13.348Z,99.90
2023-05-22T01:00:37.056Z,1.00
2023-05-22T01:01:01.256Z,99.90
2023-05-22T01:01:26.708Z,99.90
2023-05-22T01:01:49.744Z,99.90
2023-05-22T01:02:14.927Z,1.00
2023-05-22T01:02:37.999Z,1.00
2023-05-22T01:03:03.135Z,99.90
2023-05-22T01:03:27.445Z,99.90
2023-05-22T01:03:50.911Z,99.90
2023-05-22T01:04:15.521Z,99.90
2023-05-22T01:04:38.921Z,99.90
2023-05-22T01:05:01.656Z,1.00
2023-05-22T01:05:26.927Z,1.00
2023-05-22T01:05:49.723Z,1.00
2023-05-22T01:06:12.977Z,1.00
2023-05-22T01:06:35.711Z,99.90
2023-05-22T01:06:59.178Z,99.90
2023-05-22T01:07:22.235Z,1.00
2023-05-22T01:07:45.156Z,1.00
2023-05-22T01:08:08.448Z,1.00
2023-05-22T01:08:31.226Z,1.00
2023-05-22T01:08:54.008Z,1.00
2023-05-22T01:09:16.795Z,1.00
2023-05-22T01:09:39.770Z,1.00
2023-05-22T01:10:04.846Z,1.00
2023-05-22T01:10:27.628Z,1.00
2023-05-22T01:10:53.457Z,1.00
2023-05-22T01:11:18.771Z,1.00
2023-05-22T01:11:44.367Z,1.00
2023-05-22T01:12:11.397Z,1.00
2023-05-22T01:12:43.082Z,1.00
2023-05-22T01:13:11.203Z,1.00
2023-05-22T01:13:39.233Z,1.00
2023-05-22T01:14:08.609Z,1.00
2023-05-22T01:14:35.854Z,1.00
2023-05-22T01:15:04.260Z,1.00
2023-05-22T01:15:31.346Z,1.00
2023-05-22T01:15:57.533Z,1.00
2023-05-22T01:16:25.585Z,1.00
2023-05-22T01:16:52.270Z,1.00
2023-05-22T01:17:23.690Z,1.00
2023-05-22T01:17:53.307Z,1.00
2023-05-22T01:18:22.426Z,1.00
2023-05-22T01:18:46.844Z,1.00
2023-05-22T01:19:31.831Z,1.00
2023-05-22T01:20:02.168Z,1.00
2023-05-22T01:20:27.909Z,1.00
2023-05-22T01:20:53.108Z,1.00
2023-05-22T01:21:22.120Z,1.00
2023-05-22T01:21:47.869Z,66.00
2023-05-22T01:22:17.806Z,99.90
2023-05-22T01:23:06.130Z,99.90
2023-05-22T01:24:16.614Z,1.00
2023-05-22T01:25:00.876Z,99.90
2023-05-22T01:25:47.812Z,99.90
2023-05-22T01:26:45.099Z,1.00
2023-05-22T01:27:26.256Z,99.90
2023-05-22T01:28:09.534Z,99.90
2023-05-22T01:28:42.753Z,1.00
2023-05-22T01:29:14.584Z,1.00
2023-05-22T01:29:43.340Z,99.90
2023-05-22T01:30:20.677Z,99.90
2023-05-22T01:30:48.609Z,99.90
2023-05-22T01:31:12.642Z,1.00
2023-05-22T01:31:36.988Z,99.90
2023-05-22T01:32:00.009Z,1.00
2023-05-22T01:32:23.409Z,1.00
2023-05-22T01:32:46.834Z,74.20
2023-05-22T01:33:09.890Z,99.90
2023-05-22T01:33:34.194Z,99.90
2023-05-22T01:33:58.130Z,99.90
2023-05-22T01:34:21.202Z,99.90
2023-05-22T01:34:44.694Z,99.90
2023-05-22T01:35:08.678Z,1.00
2023-05-22T01:35:31.446Z,1.00
2023-05-22T01:35:54.637Z,1.00
2023-05-22T01:36:21.439Z,99.90
2023-05-22T01:36:44.897Z,99.90
2023-05-22T01:37:07.683Z,99.90
2023-05-22T01:37:30.587Z,99.90
2023-05-22T01:37:53.400Z,99.90
2023-05-22T01:38:16.838Z,99.90
2023-05-22T01:38:39.719Z,99.90
2023-05-22T01:39:04.686Z,99.90
2023-05-22T01:39:27.456Z,99.90
2023-05-22T01:39:51.256Z,99.90
2023-05-22T01:40:14.211Z,1.00
2023-05-22T01:40:37.015Z,1.00
2023-05-22T01:41:00.222Z,1.00
2023-05-22T01:41:23.091Z,1.00
2023-05-22T01:41:46.125Z,1.00
2023-05-22T01:42:09.116Z,44.60
2023-05-22T01:42:31.849Z,1.00
2023-05-22T01:42:54.611Z,1.00
2023-05-22T01:43:17.482Z,8.70
2023-05-22T01:43:40.363Z,99.90
2023-05-22T01:44:03.139Z,86.70
2023-05-22T01:44:25.970Z,61.20
2023-05-22T01:44:49.168Z,75.30
2023-05-22T01:45:12.553Z,55.30
2023-05-22T01:45:35.407Z,98.20
2023-05-22T01:46:00.342Z,47.50
2023-05-22T01:46:26.656Z,99.90
2023-05-22T01:46:49.472Z,99.90
2023-05-22T01:47:12.226Z,99.90
2023-05-22T01:47:35.924Z,99.90
2023-05-22T01:47:58.820Z,99.90
2023-05-22T01:48:21.744Z,99.90
2023-05-22T01:48:44.494Z,99.90
2023-05-22T01:49:09.204Z,99.90
2023-05-22T01:49:33.048Z,99.90
2023-05-22T01:49:55.986Z,99.90
2023-05-22T01:50:18.862Z,99.90
2023-05-22T01:50:41.834Z,99.90
2023-05-22T01:51:07.926Z,1.00
2023-05-22T01:51:38.061Z,1.00
2023-05-22T01:52:06.326Z,1.00
2023-05-22T01:52:32.421Z,1.00
2023-05-22T01:52:59.781Z,1.00
2023-05-22T01:53:33.404Z,1.00
2023-05-22T01:53:58.111Z,1.00
2023-05-22T01:54:25.007Z,46.80
2023-05-22T01:54:52.996Z,1.00
2023-05-22T01:55:20.527Z,45.40
2023-05-22T01:55:46.564Z,7.70
2023-05-22T01:56:12.837Z,1.00
2023-05-22T01:56:39.567Z,1.00
2023-05-22T01:57:05.812Z,1.00
2023-05-22T01:57:31.346Z,1.00
2023-05-22T01:57:57.339Z,1.00
2023-05-22T01:58:24.702Z,1.00
2023-05-22T01:58:49.962Z,1.00
2023-05-22T01:59:16.881Z,1.00
2023-05-22T01:59:43.883Z,1.00
2023-05-22T02:00:11.740Z,1.00
2023-05-22T02:00:34.527Z,15.00
2023-05-22T02:00:57.849Z,1.00
2023-05-22T02:01:22.146Z,1.00
2023-05-22T02:01:44.968Z,1.00
2023-05-22T02:02:09.185Z,1.00
2023-05-22T02:02:32.063Z,1.00
2023-05-22T02:02:58.562Z,1.00
2023-05-22T02:03:25.295Z,1.00
2023-05-22T02:03:48.433Z,1.00
2023-05-22T02:04:11.468Z,1.00
2023-05-22T02:04:35.734Z,1.00
2023-05-22T02:05:00.305Z,12.60
2023-05-22T02:05:23.244Z,83.30
2023-05-22T02:05:46.034Z,99.90
2023-05-22T02:06:10.708Z,99.90
2023-05-22T02:06:33.847Z,99.90
2023-05-22T02:06:56.711Z,99.90
2023-05-22T02:07:21.438Z,99.90
2023-05-22T02:07:44.221Z,99.90
2023-05-22T02:08:06.930Z,99.90
2023-05-22T02:08:29.707Z,99.90
2023-05-22T02:08:52.539Z,99.90
2023-05-22T02:09:15.348Z,99.90
2023-05-22T02:09:38.143Z,99.90
2023-05-22T02:10:01.487Z,99.90
2023-05-22T02:10:24.225Z,99.90
2023-05-22T02:10:46.996Z,99.90
2023-05-22T02:11:10.422Z,99.90
2023-05-22T02:11:33.198Z,1.00
2023-05-22T02:11:56.282Z,1.00
2023-05-22T02:12:19.152Z,99.90
2023-05-22T02:12:41.899Z,99.90
2023-05-22T02:13:04.844Z,99.90
2023-05-22T02:13:27.744Z,99.90
2023-05-22T02:13:50.606Z,99.90
2023-05-22T02:14:13.386Z,99.90
2023-05-22T02:14:37.000Z,99.90
2023-05-22T02:14:59.802Z,99.90
2023-05-22T02:15:22.593Z,99.90
2023-05-22T02:15:46.355Z,99.90
2023-05-22T02:16:10.072Z,99.90
2023-05-22T02:16:35.113Z,99.90
2023-05-22T02:16:58.453Z,99.90
2023-05-22T02:17:22.140Z,99.90
2023-05-22T02:17:45.726Z,99.90
2023-05-22T02:18:11.493Z,99.90
2023-05-22T02:18:34.467Z,99.90
2023-05-22T02:19:06.566Z,99.90
2023-05-22T02:19:29.848Z,99.90
2023-05-22T02:19:52.814Z,1.00
2023-05-22T02:20:15.895Z,1.00
2023-05-22T02:20:38.909Z,1.00
2023-05-22T02:21:03.426Z,1.00
2023-05-22T02:21:27.270Z,1.00
2023-05-22T02:21:50.191Z,1.00
2023-05-22T02:22:15.926Z,1.00
2023-05-22T02:22:38.679Z,1.00
2023-05-22T02:23:01.475Z,1.00
2023-05-22T02:23:24.707Z,99.90
2023-05-22T02:23:47.394Z,99.90
2023-05-22T02:24:10.243Z,99.90
2023-05-22T02:24:36.749Z,99.90
2023-05-22T02:24:59.454Z,99.90
2023-05-22T02:25:22.219Z,99.90
2023-05-22T02:25:44.992Z,93.00
2023-05-22T02:26:07.780Z,98.80
2023-05-22T02:26:30.678Z,99.80
2023-05-22T02:26:53.470Z,1.00
2023-05-22T02:27:17.434Z,1.00
2023-05-22T02:27:41.667Z,99.90
2023-05-22T02:28:04.649Z,99.90
2023-05-22T02:28:27.703Z,99.90
2023-05-22T02:28:50.578Z,99.90
2023-05-22T02:29:13.799Z,99.90
2023-05-22T02:29:36.608Z,99.90
2023-05-22T02:30:00.674Z,1.00
2023-05-22T02:30:23.551Z,1.00
2023-05-22T02:30:46.274Z,1.00
2023-05-22T02:31:09.099Z,1.00
2023-05-22T02:31:33.431Z,99.90
2023-05-22T02:31:56.324Z,99.90
2023-05-22T02:32:19.110Z,99.90
2023-05-22T02:32:41.884Z,99.90
2023-05-22T02:33:06.194Z,99.90
2023-05-22T02:33:30.170Z,99.90
2023-05-22T02:33:52.929Z,99.90
2023-05-22T02:34:16.056Z,25.50
2023-05-22T02:34:39.002Z,1.00
2023-05-22T02:35:01.791Z,1.00
2023-05-22T02:35:25.770Z,1.00
2023-05-22T02:35:48.647Z,99.90
2023-05-22T02:36:13.092Z,99.90
2023-05-22T02:36:37.404Z,99.90
2023-05-22T02:37:00.332Z,99.90
2023-05-22T02:37:23.089Z,99.90
2023-05-22T02:37:46.445Z,99.90
2023-05-22T02:38:09.486Z,99.90
2023-05-22T02:38:32.263Z,99.90
2023-05-22T02:38:55.723Z,99.90
2023-05-22T02:39:18.625Z,99.90
2023-05-22T02:39:41.407Z,9.70
2023-05-22T02:40:07.470Z,1.00
2023-05-22T02:40:30.251Z,1.00
2023-05-22T02:40:53.049Z,99.90
2023-05-22T02:41:15.974Z,99.90
2023-05-22T02:41:38.768Z,99.90
2023-05-22T02:42:01.553Z,99.90
2023-05-22T02:42:24.237Z,99.90
2023-05-22T02:42:47.104Z,99.90
2023-05-22T02:43:09.958Z,99.90
2023-05-22T02:43:32.708Z,99.90
2023-05-22T02:43:55.665Z,99.90
2023-05-22T02:44:18.442Z,99.90
2023-05-22T02:44:41.146Z,99.90
2023-05-22T02:45:04.358Z,72.10
2023-05-22T02:45:27.248Z,29.30
2023-05-22T02:45:50.286Z,11.90
2023-05-22T02:46:13.225Z,24.80
2023-05-22T02:46:37.909Z,1.00
2023-05-22T02:47:00.832Z,6.00
2023-05-22T02:47:23.784Z,94.70
2023-05-22T02:47:46.625Z,25.00
2023-05-22T02:48:09.483Z,33.90
2023-05-22T02:48:32.359Z,20.00
2023-05-22T02:48:55.238Z,29.40
2023-05-22T02:49:17.952Z,64.20
2023-05-22T02:49:41.468Z,62.50
2023-05-22T02:50:04.508Z,92.40
2023-05-22T02:50:27.239Z,1.00
2023-05-22T02:50:50.125Z,1.00
2023-05-22T02:51:12.894Z,1.00
2023-05-22T02:51:36.205Z,1.00
2023-05-22T02:51:59.072Z,1.00
2023-05-22T02:52:22.675Z,1.00
2023-05-22T02:52:45.503Z,1.00
2023-05-22T02:53:08.708Z,1.00
2023-05-22T02:53:32.045Z,1.00
2023-05-22T02:53:55.446Z,1.00
2023-05-22T02:54:18.784Z,1.00
2023-05-22T02:54:42.124Z,1.00
2023-05-22T02:55:06.130Z,1.00
2023-05-22T02:55:28.874Z,1.00
2023-05-22T02:55:53.501Z,1.00
2023-05-22T02:56:16.260Z,1.00
2023-05-22T02:56:38.986Z,1.00
2023-05-22T02:57:02.955Z,99.90
2023-05-22T02:57:25.673Z,1.00
2023-05-22T02:57:48.429Z,1.00
2023-05-22T02:58:11.947Z,1.00
2023-05-22T02:58:34.753Z,1.00
2023-05-22T02:58:57.609Z,1.00
2023-05-22T02:59:20.528Z,1.00
2023-05-22T02:59:43.339Z,1.00
2023-05-22T03:00:07.401Z,1.00
2023-05-22T03:00:30.271Z,1.00
2023-05-22T03:00:55.899Z,1.00
2023-05-22T03:01:18.742Z,1.00
2023-05-22T03:01:44.481Z,1.00
2023-05-22T03:02:07.943Z,1.00
2023-05-22T03:02:32.710Z,1.00
2023-05-22T03:02:55.814Z,1.00
2023-05-22T03:03:18.862Z,1.00
2023-05-22T03:03:43.788Z,99.90
2023-05-22T03:04:07.154Z,99.90
2023-05-22T03:04:29.944Z,99.90
2023-05-22T03:04:52.678Z,99.90
2023-05-22T03:05:18.016Z,99.90
2023-05-22T03:05:41.215Z,99.90
2023-05-22T03:06:04.456Z,99.90
2023-05-22T03:06:27.286Z,99.90
2023-05-22T03:06:50.440Z,99.90
2023-05-22T03:07:13.255Z,99.90
2023-05-22T03:07:37.308Z,99.90
2023-05-22T03:08:00.181Z,99.90
2023-05-22T03:08:22.862Z,99.90
2023-05-22T03:08:46.915Z,99.90
2023-05-22T03:09:10.706Z,99.90
2023-05-22T03:09:33.633Z,99.90
2023-05-22T03:09:56.526Z,99.90
2023-05-22T03:10:19.473Z,99.90
2023-05-22T03:10:42.447Z,99.90
2023-05-22T03:11:05.363Z,99.90
2023-05-22T03:11:28.186Z,99.90
2023-05-22T03:11:51.049Z,99.90
2023-05-22T03:12:13.823Z,53.70
2023-05-22T03:12:36.616Z,80.00
2023-05-22T03:12:59.453Z,1.00
2023-05-22T03:13:22.193Z,1.00
2023-05-22T03:13:45.153Z,1.00
2023-05-22T03:14:07.910Z,1.00
2023-05-22T03:14:30.783Z,1.00
2023-05-22T03:14:53.557Z,1.00
2023-05-22T03:15:16.614Z,1.00
2023-05-22T03:15:39.551Z,1.00
2023-05-22T03:16:02.536Z,1.00
2023-05-22T03:16:26.200Z,1.00
2023-05-22T03:16:50.539Z,1.00
2023-05-22T03:17:13.543Z,1.00
2023-05-22T03:17:36.345Z,1.00
2023-05-22T03:17:59.176Z,1.00
2023-05-22T03:18:21.987Z,1.00
2023-05-22T03:18:44.916Z,1.00
2023-05-22T03:19:09.304Z,1.00
2023-05-22T03:19:32.274Z,1.00
2023-05-22T03:19:55.571Z,1.00
2023-05-22T03:20:18.289Z,1.00
2023-05-22T03:20:42.079Z,1.00
2023-05-22T03:21:05.522Z,1.00
2023-05-22T03:21:28.216Z,1.00
2023-05-22T03:21:51.163Z,1.00
2023-05-22T03:22:13.951Z,1.00
2023-05-22T03:22:36.728Z,1.00
2023-05-22T03:22:59.503Z,1.00
2023-05-22T03:23:22.325Z,1.00
2023-05-22T03:23:46.128Z,1.00
2023-05-22T03:24:08.911Z,1.00
2023-05-22T03:24:32.537Z,99.90
2023-05-22T03:24:55.446Z,99.90
2023-05-22T03:25:18.177Z,99.90
2023-05-22T03:25:40.970Z,99.90
2023-05-22T03:26:03.840Z,99.90
2023-05-22T03:26:28.562Z,99.90
2023-05-22T03:26:51.415Z,99.90
2023-05-22T03:27:16.816Z,99.90
2023-05-22T03:27:41.333Z,94.00
2023-05-22T03:28:04.483Z,50.60
2023-05-22T03:28:27.374Z,80.20
2023-05-22T03:28:50.843Z,69.40
2023-05-22T03:29:13.657Z,79.10
2023-05-22T03:29:36.559Z,53.10
2023-05-22T03:29:59.269Z,99.90
2023-05-22T03:30:22.089Z,98.20
2023-05-22T03:30:44.916Z,99.90
2023-05-22T03:31:09.639Z,99.90
2023-05-22T03:31:33.323Z,99.90
2023-05-22T03:31:57.696Z,99.90
2023-05-22T03:32:20.516Z,99.90
2023-05-22T03:32:43.301Z,99.90
2023-05-22T03:33:06.199Z,99.90
2023-05-22T03:33:29.127Z,99.90
2023-05-22T03:33:52.042Z,99.90
2023-05-22T03:34:14.926Z,99.90
2023-05-22T03:34:37.692Z,99.90
2023-05-22T03:35:00.584Z,99.90
2023-05-22T03:35:25.020Z,99.90
2023-05-22T03:35:47.839Z,1.00
2023-05-22T03:36:10.665Z,1.00
2023-05-22T03:36:36.626Z,79.60
2023-05-22T03:36:59.426Z,99.90
2023-05-22T03:37:22.166Z,99.90
2023-05-22T03:37:44.895Z,99.90
2023-05-22T03:38:07.821Z,99.90
2023-05-22T03:38:30.616Z,99.90
2023-05-22T03:38:53.331Z,99.90
2023-05-22T03:39:16.156Z,99.90
2023-05-22T03:39:39.691Z,99.90
2023-05-22T03:40:02.456Z,99.90
2023-05-22T03:40:25.197Z,99.90
2023-05-22T03:40:48.159Z,99.90
2023-05-22T03:41:11.025Z,1.00
2023-05-22T03:41:33.838Z,1.00
2023-05-22T03:41:56.805Z,1.00
2023-05-22T03:42:19.741Z,1.00
2023-05-22T03:42:42.580Z,1.00
2023-05-22T03:43:05.799Z,1.00
2023-05-22T03:43:28.527Z,99.90
2023-05-22T03:43:51.368Z,99.90
2023-05-22T03:44:14.276Z,99.90
2023-05-22T03:44:37.007Z,1.00
2023-05-22T03:44:59.738Z,1.00
2023-05-22T03:45:22.676Z,99.90
2023-05-22T03:45:45.498Z,99.90
2023-05-22T03:46:08.269Z,99.90
2023-05-22T03:46:31.108Z,99.90
2023-05-22T03:46:54.117Z,92.20
2023-05-22T03:47:18.419Z,22.20
2023-05-22T03:47:41.316Z,1.00
2023-05-22T03:48:04.408Z,1.00
2023-05-22T03:48:27.640Z,1.00
2023-05-22T03:48:50.433Z,99.90
2023-05-22T03:49:13.162Z,99.90
2023-05-22T03:49:36.044Z,99.90
2023-05-22T03:49:58.843Z,99.90
2023-05-22T03:50:21.779Z,99.90
2023-05-22T03:50:44.560Z,99.90
2023-05-22T03:51:07.386Z,99.90
2023-05-22T03:51:31.812Z,99.90
2023-05-22T03:51:54.655Z,99.90
2023-05-22T03:52:17.497Z,99.90
2023-05-22T03:52:40.216Z,99.90
2023-05-22T03:53:02.948Z,99.90
2023-05-22T03:53:25.778Z,99.90
2023-05-22T03:53:48.625Z,97.60
2023-05-22T03:54:11.638Z,94.20
2023-05-22T03:54:34.436Z,92.70
2023-05-22T03:54:57.402Z,75.40
2023-05-22T03:55:20.184Z,38.90
2023-05-22T03:55:43.061Z,29.00
2023-05-22T03:56:06.110Z,16.50
2023-05-22T03:56:28.902Z,18.60
2023-05-22T03:56:51.697Z,1.00
2023-05-22T03:57:15.076Z,1.00
2023-05-22T03:57:37.826Z,1.00
2023-05-22T03:58:00.652Z,1.00
2023-05-22T03:58:25.702Z,1.00
2023-05-22T03:58:48.432Z,1.00
2023-05-22T03:59:11.250Z,1.00
2023-05-22T03:59:34.014Z,1.00
2023-05-22T03:59:56.845Z,1.00
2023-05-22T04:00:21.015Z,1.00
2023-05-22T04:00:43.848Z,1.00
2023-05-22T04:01:06.670Z,1.00
2023-05-22T04:01:30.130Z,1.00
2023-05-22T04:01:52.873Z,1.00
2023-05-22T04:02:17.492Z,1.00
2023-05-22T04:02:44.950Z,1.00
2023-05-22T04:03:13.077Z,99.90
2023-05-22T04:03:36.445Z,99.90
2023-05-22T04:03:59.364Z,99.90
2023-05-22T04:04:22.226Z,99.90
2023-05-22T04:04:46.534Z,99.90
2023-05-22T04:05:10.354Z,99.90
2023-05-22T04:05:33.613Z,99.90
2023-05-22T04:05:57.291Z,99.90
2023-05-22T04:06:23.548Z,99.90
2023-05-22T04:06:47.032Z,99.90
2023-05-22T04:07:12.845Z,99.90
2023-05-22T04:07:36.566Z,99.90
2023-05-22T04:07:59.495Z,99.90
2023-05-22T04:08:22.310Z,99.90
2023-05-22T04:08:45.089Z,99.90
2023-05-22T04:09:08.392Z,99.90
2023-05-22T04:09:31.782Z,99.90
2023-05-22T04:09:54.525Z,99.90
2023-05-22T04:10:17.277Z,99.90
2023-05-22T04:10:40.418Z,99.90
2023-05-22T04:11:03.624Z,99.90
2023-05-22T04:11:27.234Z,99.90
2023-05-22T04:11:49.969Z,99.90
2023-05-22T04:12:12.707Z,99.90
2023-05-22T04:12:35.737Z,99.90
2023-05-22T04:12:59.836Z,99.90
2023-05-22T04:13:22.834Z,99.90
2023-05-22T04:13:46.114Z,99.90
2023-05-22T04:14:08.942Z,99.90
2023-05-22T04:14:32.874Z,99.90
2023-05-22T04:14:55.710Z,99.90
2023-05-22T04:15:18.412Z,99.90
2023-05-22T04:15:43.913Z,99.90
2023-05-22T04:16:06.981Z,99.90
2023-05-22T04:16:29.922Z,99.90
2023-05-22T04:16:55.885Z,99.90
2023-05-22T04:17:20.205Z,99.90
2023-05-22T04:17:42.988Z,99.90
2023-05-22T04:18:05.942Z,99.90
2023-05-22T04:18:29.029Z,99.90
2023-05-22T04:18:51.802Z,99.90
2023-05-22T04:19:18.454Z,99.90
2023-05-22T04:19:41.476Z,99.80
2023-05-22T04:20:05.360Z,89.70
2023-05-22T04:20:28.198Z,53.80
2023-05-22T04:20:52.094Z,49.20
2023-05-22T04:21:14.903Z,30.00
2023-05-22T04:21:38.488Z,43.70
2023-05-22T04:22:01.326Z,58.10
2023-05-22T04:22:24.150Z,19.40
2023-05-22T04:22:48.953Z,27.80
2023-05-22T04:23:11.826Z,8.80
2023-05-22T04:23:34.667Z,1.00
2023-05-22T04:23:57.359Z,1.00
2023-05-22T04:24:23.306Z,1.00
2023-05-22T04:24:49.379Z,1.00
2023-05-22T04:25:12.259Z,1.00
2023-05-22T04:25:36.585Z,1.00
2023-05-22T04:26:02.457Z,1.00
2023-05-22T04:26:26.142Z,1.00
2023-05-22T04:26:49.526Z,1.00
2023-05-22T04:27:13.528Z,1.00
2023-05-22T04:27:38.213Z,1.00
2023-05-22T04:28:04.316Z,1.00
2023-05-22T04:28:27.162Z,1.00
2023-05-22T04:28:49.970Z,1.00
2023-05-22T04:29:14.788Z,1.00
2023-05-22T04:29:37.956Z,1.00
2023-05-22T04:30:00.856Z,1.00
2023-05-22T04:30:25.964Z,1.00
2023-05-22T04:30:48.960Z,1.00
2023-05-22T04:31:12.899Z,1.00
2023-05-22T04:31:35.835Z,1.00
2023-05-22T04:32:00.390Z,1.00
2023-05-22T04:32:24.612Z,1.00
2023-05-22T04:32:47.531Z,1.00
2023-05-22T04:33:10.964Z,1.00
2023-05-22T04:33:34.636Z,1.00
2023-05-22T04:34:00.385Z,1.00
2023-05-22T04:34:24.203Z,1.00
2023-05-22T04:34:48.188Z,1.00
2023-05-22T04:35:12.526Z,1.00
2023-05-22T04:35:35.390Z,1.00
2023-05-22T04:35:58.211Z,1.00
2023-05-22T04:36:26.822Z,1.00
2023-05-22T04:36:49.713Z,1.00
2023-05-22T04:37:15.253Z,1.00
2023-05-22T04:37:37.950Z,1.00
2023-05-22T04:38:03.822Z,1.00
2023-05-22T04:38:26.808Z,99.90
2023-05-22T04:38:50.456Z,99.90
2023-05-22T04:39:14.133Z,99.90
2023-05-22T04:39:37.831Z,99.90
2023-05-22T04:40:06.078Z,99.90
2023-05-22T04:40:30.547Z,99.90
2023-05-22T04:40:54.309Z,99.90
2023-05-22T04:41:19.215Z,99.90
2023-05-22T04:41:43.572Z,99.90
2023-05-22T04:42:06.629Z,99.90
2023-05-22T04:42:31.233Z,99.90
2023-05-22T04:42:54.826Z,99.90
2023-05-22T04:43:18.921Z,99.90
2023-05-22T04:43:41.871Z,99.90
2023-05-22T04:44:04.921Z,99.90
2023-05-22T04:44:30.644Z,99.90
2023-05-22T04:44:53.364Z,99.90
2023-05-22T04:45:16.236Z,99.90
2023-05-22T04:45:39.407Z,99.90
2023-05-22T04:46:02.140Z,99.90
2023-05-22T04:46:25.002Z,99.90
2023-05-22T04:46:47.942Z,99.90
2023-05-22T04:47:14.681Z,99.90
2023-05-22T04:47:41.752Z,99.90
2023-05-22T04:48:05.497Z,99.90
2023-05-22T04:48:28.386Z,99.90
2023-05-22T04:48:51.181Z,99.90
2023-05-22T04:49:14.488Z,99.90
2023-05-22T04:49:37.667Z,99.90
2023-05-22T04:50:00.454Z,99.90
2023-05-22T04:50:24.091Z,99.90
2023-05-22T04:50:47.521Z,99.90
2023-05-22T04:51:10.482Z,99.90
2023-05-22T04:51:35.297Z,99.90
2023-05-22T04:51:58.613Z,99.90
2023-05-22T04:52:22.015Z,99.90
2023-05-22T04:52:44.906Z,99.90
2023-05-22T04:53:07.738Z,99.90
2023-05-22T04:53:30.600Z,99.90
2023-05-22T04:53:55.731Z,99.90
2023-05-22T04:54:18.453Z,99.90
2023-05-22T04:54:41.820Z,99.90
2023-05-22T04:55:07.140Z,99.90
2023-05-22T04:55:30.225Z,99.90
2023-05-22T04:55:53.056Z,99.90
2023-05-22T04:56:24.310Z,99.90
2023-05-22T04:56:55.230Z,99.90
2023-05-22T04:57:18.596Z,99.90
2023-05-22T04:57:41.707Z,99.90
2023-05-22T04:58:06.048Z,99.90
2023-05-22T04:58:29.670Z,99.90
2023-05-22T04:58:54.044Z,99.90
2023-05-22T04:59:16.952Z,99.90
2023-05-22T04:59:40.357Z,99.90
2023-05-22T05:00:05.007Z,99.90
2023-05-22T05:00:29.039Z,99.90
2023-05-22T05:00:52.754Z,99.90
2023-05-22T05:01:16.722Z,99.90
2023-05-22T05:01:39.556Z,99.90
2023-05-22T05:02:02.430Z,99.90
2023-05-22T05:02:25.317Z,99.90
2023-05-22T05:02:49.897Z,99.90
2023-05-22T05:03:12.919Z,99.90
2023-05-22T05:03:36.056Z,99.90
2023-05-22T05:03:58.921Z,99.90
2023-05-22T05:04:22.048Z,99.90
2023-05-22T05:04:44.910Z,99.90
2023-05-22T05:05:08.410Z,99.90
2023-05-22T05:05:31.172Z,99.90
2023-05-22T05:05:54.032Z,99.90
2023-05-22T05:06:17.414Z,99.90
2023-05-22T05:06:40.244Z,99.90
2023-05-22T05:07:03.900Z,99.90
2023-05-22T05:07:26.657Z,99.90
2023-05-22T05:07:50.460Z,99.90
2023-05-22T05:08:13.317Z,99.90
2023-05-22T05:08:36.135Z,99.90
2023-05-22T05:08:58.897Z,99.90
2023-05-22T05:09:21.753Z,99.90
2023-05-22T05:09:44.576Z,99.90
2023-05-22T05:10:08.199Z,99.90
2023-05-22T05:10:31.073Z,99.90
2023-05-22T05:10:53.978Z,99.90
2023-05-22T05:11:16.826Z,99.90
2023-05-22T05:11:39.635Z,99.90
2023-05-22T05:12:03.416Z,99.90